createdAt,value
2019-04-16T00:00:11.831Z,0.00
2019-04-16T00:01:11.279Z,0.00
2019-04-16T00:02:08.978Z,0.00
2019-04-16T00:03:08.952Z,0.00
2019-04-16T00:04:08.942Z,0.00
2019-04-16T00:05:08.907Z,0.00
2019-04-16T00:06:08.897Z,0.00
2019-04-16T00:07:08.885Z,0.00
2019-04-16T00:08:26.544Z,0.00
2019-04-16T00:09:09.865Z,0.00
2019-04-16T00:10:08.859Z,0.00
2019-04-16T00:11:08.881Z,0.00
2019-04-16T00:12:08.853Z,0.00
2019-04-16T00:13:08.827Z,0.00
2019-04-16T00:14:08.833Z,0.00
2019-04-16T00:15:08.828Z,0.00
2019-04-16T00:16:12.705Z,0.00
2019-04-16T00:17:08.792Z,0.00
2019-04-16T00:18:08.883Z,0.00
2019-04-16T00:19:08.763Z,0.00
2019-04-16T00:20:08.798Z,0.00
2019-04-16T00:21:09.881Z,0.00
2019-04-16T00:22:11.558Z,0.00
2019-04-16T00:23:08.745Z,0.00
2019-04-16T00:24:08.727Z,0.00
2019-04-16T00:25:08.707Z,0.00
2019-04-16T00:26:08.732Z,0.00
2019-04-16T00:27:08.719Z,0.00
2019-04-16T00:28:08.693Z,0.00
2019-04-16T00:29:08.655Z,0.00
2019-04-16T00:30:08.648Z,0.00
2019-04-16T00:31:08.703Z,0.00
2019-04-16T00:32:09.692Z,0.00
2019-04-16T00:33:10.821Z,0.00
2019-04-16T00:34:08.600Z,0.00
2019-04-16T00:35:08.582Z,0.00
2019-04-16T00:36:08.584Z,0.00
2019-04-16T00:37:08.569Z,0.00
2019-04-16T00:38:08.668Z,0.00
2019-04-16T00:39:08.564Z,0.00
2019-04-16T00:40:08.542Z,0.00
2019-04-16T00:41:08.532Z,0.00
2019-04-16T00:42:08.539Z,0.00
2019-04-16T00:43:08.509Z,0.00
2019-04-16T00:44:08.554Z,0.00
2019-04-16T00:45:08.556Z,0.00
2019-04-16T00:46:11.446Z,0.00
2019-04-16T00:47:08.468Z,0.00
2019-04-16T00:48:08.451Z,0.00
2019-04-16T00:49:08.486Z,0.00
2019-04-16T00:50:08.464Z,0.00
2019-04-16T00:51:08.429Z,0.00
2019-04-16T00:52:08.432Z,0.00
2019-04-16T00:53:09.022Z,0.00
2019-04-16T00:54:10.339Z,0.00
2019-04-16T00:55:08.384Z,0.00
2019-04-16T00:56:08.480Z,0.00
2019-04-16T00:57:08.368Z,0.00
2019-04-16T00:58:08.584Z,0.00
2019-04-16T00:59:08.538Z,0.00
2019-04-16T01:00:08.327Z,0.00
2019-04-16T01:01:08.339Z,0.00
2019-04-16T01:02:08.442Z,0.00
2019-04-16T01:03:08.285Z,0.00
2019-04-16T01:04:08.302Z,0.00
2019-04-16T01:05:08.266Z,0.00
2019-04-16T01:06:08.476Z,0.00
2019-04-16T01:07:08.324Z,0.00
2019-04-16T01:08:08.483Z,0.00
2019-04-16T01:09:15.271Z,0.00
2019-04-16T01:10:08.234Z,0.00
2019-04-16T01:11:08.208Z,0.00
2019-04-16T01:12:08.193Z,0.00
2019-04-16T01:13:08.179Z,0.00
2019-04-16T01:14:08.186Z,0.00
2019-04-16T01:15:08.157Z,0.00
2019-04-16T01:16:08.154Z,0.00
2019-04-16T01:17:08.141Z,0.00
2019-04-16T01:18:09.003Z,0.00
2019-04-16T01:19:10.046Z,0.00
2019-04-16T01:20:11.648Z,0.00
2019-04-16T01:21:08.102Z,0.00
2019-04-16T01:22:08.083Z,0.00
2019-04-16T01:23:08.082Z,0.00
2019-04-16T01:24:08.067Z,0.00
2019-04-16T01:25:08.055Z,0.00
2019-04-16T01:26:08.150Z,0.00
2019-04-16T01:27:08.030Z,0.00
2019-04-16T01:28:08.019Z,0.00
2019-04-16T01:29:08.207Z,0.00
2019-04-16T01:30:08.000Z,0.00
2019-04-16T01:31:08.583Z,0.00
2019-04-16T01:32:11.253Z,0.00
2019-04-16T01:33:07.968Z,0.00
2019-04-16T01:34:07.962Z,0.00
2019-04-16T01:35:08.179Z,0.00
2019-04-16T01:36:08.137Z,0.00
2019-04-16T01:37:08.155Z,0.00
2019-04-16T01:38:07.956Z,0.00
2019-04-16T01:39:17.533Z,0.00
2019-04-16T01:40:08.896Z,0.00
2019-04-16T01:41:07.883Z,0.00
2019-04-16T01:42:07.881Z,0.00
2019-04-16T01:43:07.867Z,0.00
2019-04-16T01:44:07.873Z,0.00
2019-04-16T01:45:07.841Z,0.00
2019-04-16T01:46:07.836Z,0.00
2019-04-16T01:47:07.825Z,0.00
2019-04-16T01:48:08.287Z,0.00
2019-04-16T01:49:10.279Z,0.00
2019-04-16T01:50:07.814Z,0.00
2019-04-16T01:51:07.780Z,0.00
2019-04-16T01:52:07.770Z,0.00
2019-04-16T01:53:07.755Z,0.00
2019-04-16T01:54:07.750Z,0.00
2019-04-16T01:55:07.736Z,0.00
2019-04-16T01:56:07.742Z,0.00
2019-04-16T01:57:07.715Z,0.00
2019-04-16T01:58:07.707Z,0.00
2019-04-16T01:59:07.689Z,0.00
2019-04-16T02:00:08.492Z,0.00
2019-04-16T02:01:08.163Z,0.00
2019-04-16T02:02:07.682Z,0.00
2019-04-16T02:03:07.656Z,0.00
2019-04-16T02:04:07.637Z,0.00
2019-04-16T02:05:07.637Z,0.00
2019-04-16T02:06:07.615Z,0.00
2019-04-16T02:07:07.602Z,0.00
2019-04-16T02:08:07.662Z,0.00
2019-04-16T02:09:16.072Z,0.00
2019-04-16T02:10:08.837Z,0.00
2019-04-16T02:11:10.833Z,0.00
2019-04-16T02:12:07.789Z,0.00
2019-04-16T02:13:07.546Z,0.00
2019-04-16T02:14:07.563Z,0.00
2019-04-16T02:15:07.527Z,0.00
2019-04-16T02:16:07.516Z,0.00
2019-04-16T02:17:07.502Z,0.00
2019-04-16T02:18:07.492Z,0.00
2019-04-16T02:19:07.476Z,0.00
2019-04-16T02:20:07.640Z,0.00
2019-04-16T02:21:10.738Z,0.00
2019-04-16T02:22:07.447Z,0.00
2019-04-16T02:23:07.438Z,0.00
2019-04-16T02:24:07.426Z,0.00
2019-04-16T02:25:07.415Z,0.00
2019-04-16T02:26:07.441Z,0.00
2019-04-16T02:27:07.394Z,0.00
2019-04-16T02:28:07.388Z,0.00
2019-04-16T02:29:07.370Z,0.00
2019-04-16T02:30:07.363Z,0.00
2019-04-16T02:31:13.651Z,0.00
2019-04-16T02:32:08.359Z,0.00
2019-04-16T02:33:07.323Z,0.00
2019-04-16T02:34:07.317Z,0.00
2019-04-16T02:35:07.324Z,0.00
2019-04-16T02:36:07.296Z,0.00
2019-04-16T02:37:07.288Z,0.00
2019-04-16T02:38:12.264Z,0.00
2019-04-16T02:39:08.265Z,0.00
2019-04-16T02:40:07.261Z,0.00
2019-04-16T02:41:07.240Z,0.00
2019-04-16T02:42:07.263Z,0.00
2019-04-16T02:43:08.191Z,0.00
2019-04-16T02:44:14.081Z,0.00
2019-04-16T02:45:08.196Z,0.00
2019-04-16T02:46:07.194Z,0.00
2019-04-16T02:47:08.341Z,0.00
2019-04-16T02:48:07.275Z,0.00
2019-04-16T02:49:07.172Z,0.00
2019-04-16T02:50:07.207Z,0.00
2019-04-16T02:51:08.588Z,0.00
2019-04-16T02:52:14.771Z,0.00
2019-04-16T02:53:08.354Z,0.00
2019-04-16T02:54:07.356Z,0.00
2019-04-16T02:55:09.544Z,0.00
2019-04-16T02:56:07.123Z,0.00
2019-04-16T02:57:07.071Z,0.00
2019-04-16T02:58:07.070Z,0.00
2019-04-16T02:59:11.853Z,0.00
2019-04-16T03:00:08.033Z,0.00
2019-04-16T03:01:07.022Z,0.00
2019-04-16T03:02:07.127Z,0.00
2019-04-16T03:03:06.999Z,0.00
2019-04-16T03:04:06.993Z,0.00
2019-04-16T03:05:06.977Z,0.00
2019-04-16T03:06:06.970Z,0.00
2019-04-16T03:07:06.954Z,0.00
2019-04-16T03:08:06.971Z,0.00
2019-04-16T03:09:08.852Z,0.00
2019-04-16T03:10:12.094Z,0.00
2019-04-16T03:11:08.139Z,0.00
2019-04-16T03:12:07.002Z,0.00
2019-04-16T03:13:06.891Z,0.00
2019-04-16T03:14:06.910Z,0.00
2019-04-16T03:15:06.878Z,0.00
2019-04-16T03:16:07.602Z,0.00
2019-04-16T03:17:10.051Z,0.00
2019-04-16T03:18:06.845Z,0.00
2019-04-16T03:19:06.825Z,0.00
2019-04-16T03:20:06.858Z,0.00
2019-04-16T03:21:06.800Z,0.00
2019-04-16T03:22:06.797Z,0.00
2019-04-16T03:23:07.071Z,0.00
2019-04-16T03:24:09.339Z,0.00
2019-04-16T03:25:12.556Z,0.00
2019-04-16T03:26:07.770Z,0.00
2019-04-16T03:27:06.745Z,0.00
2019-04-16T03:28:06.834Z,0.00
2019-04-16T03:29:06.717Z,0.00
2019-04-16T03:30:06.715Z,0.00
2019-04-16T03:31:08.783Z,0.00
2019-04-16T03:32:06.814Z,0.00
2019-04-16T03:33:12.865Z,0.00
2019-04-16T03:34:07.670Z,0.00
2019-04-16T03:35:06.659Z,0.00
2019-04-16T03:36:06.643Z,0.00
2019-04-16T03:37:06.631Z,0.00
2019-04-16T03:38:06.740Z,0.00
2019-04-16T03:39:06.637Z,0.00
2019-04-16T03:40:16.120Z,0.00
2019-04-16T03:41:07.586Z,0.00
2019-04-16T03:42:06.587Z,0.00
2019-04-16T03:43:06.572Z,0.00
2019-04-16T03:44:06.668Z,0.00
2019-04-16T03:45:09.193Z,0.00
2019-04-16T03:46:06.541Z,0.00
2019-04-16T03:47:06.525Z,0.00
2019-04-16T03:48:06.511Z,0.00
2019-04-16T03:49:06.508Z,0.00
2019-04-16T03:50:06.517Z,0.00
2019-04-16T03:51:06.495Z,0.00
2019-04-16T03:52:08.825Z,0.00
2019-04-16T03:53:06.615Z,0.00
2019-04-16T03:54:06.447Z,0.00
2019-04-16T03:55:06.437Z,0.00
2019-04-16T03:56:06.629Z,0.00
2019-04-16T03:57:06.415Z,0.00
2019-04-16T03:58:07.324Z,0.00
2019-04-16T03:59:10.777Z,0.00
2019-04-16T04:00:11.092Z,0.00
2019-04-16T04:01:07.397Z,0.00
2019-04-16T04:02:06.361Z,0.00
2019-04-16T04:03:06.349Z,0.00
2019-04-16T04:04:06.344Z,4.00
2019-04-16T04:05:07.235Z,0.00
2019-04-16T04:06:07.876Z,0.00
2019-04-16T04:07:08.752Z,0.00
2019-04-16T04:08:07.393Z,4.00
2019-04-16T04:09:06.288Z,0.00
2019-04-16T04:10:06.503Z,4.00
2019-04-16T04:11:09.513Z,4.00
2019-04-16T04:12:06.257Z,4.00
2019-04-16T04:13:06.265Z,4.00
2019-04-16T04:14:06.234Z,4.00
2019-04-16T04:15:06.221Z,8.00
2019-04-16T04:16:06.218Z,8.00
2019-04-16T04:17:07.348Z,8.00
2019-04-16T04:18:07.989Z,12.00
2019-04-16T04:19:07.198Z,12.00
2019-04-16T04:20:06.238Z,16.00
2019-04-16T04:21:06.165Z,20.00
2019-04-16T04:22:06.149Z,24.00
2019-04-16T04:23:06.481Z,28.00
2019-04-16T04:24:06.257Z,32.00
2019-04-16T04:25:06.613Z,40.00
2019-04-16T04:26:08.825Z,48.00
2019-04-16T04:27:06.091Z,60.00
2019-04-16T04:28:06.081Z,72.00
2019-04-16T04:29:06.445Z,84.00
2019-04-16T04:30:06.056Z,100.00
2019-04-16T04:31:06.068Z,120.00
2019-04-16T04:32:06.038Z,144.00
2019-04-16T04:33:08.896Z,172.00
2019-04-16T04:34:06.017Z,204.00
2019-04-16T04:35:06.036Z,228.00
2019-04-16T04:36:05.992Z,260.00
2019-04-16T04:37:06.078Z,292.00
2019-04-16T04:38:05.983Z,324.00
2019-04-16T04:39:09.016Z,352.00
2019-04-16T04:40:05.951Z,392.00
2019-04-16T04:41:05.945Z,424.00
2019-04-16T04:42:05.934Z,464.00
2019-04-16T04:43:06.027Z,496.00
2019-04-16T04:44:05.909Z,536.00
2019-04-16T04:45:09.181Z,580.00
2019-04-16T04:46:05.891Z,632.00
2019-04-16T04:47:05.883Z,684.00
2019-04-16T04:48:05.870Z,740.00
2019-04-16T04:49:05.883Z,800.00
2019-04-16T04:50:05.852Z,860.00
2019-04-16T04:51:08.182Z,940.00
2019-04-16T04:52:05.829Z,1036.00
2019-04-16T04:53:05.816Z,1144.00
2019-04-16T04:54:05.806Z,1256.00
2019-04-16T04:55:05.812Z,1376.00
2019-04-16T04:56:05.787Z,1496.00
2019-04-16T04:57:05.774Z,1612.00
2019-04-16T04:58:05.758Z,1724.00
2019-04-16T04:59:06.036Z,1840.00
2019-04-16T05:00:08.415Z,1948.00
2019-04-16T05:01:05.751Z,2064.00
2019-04-16T05:02:05.724Z,2204.00
2019-04-16T05:03:05.713Z,2348.00
2019-04-16T05:04:05.696Z,2460.00
2019-04-16T05:05:05.686Z,2572.00
2019-04-16T05:06:05.678Z,2708.00
2019-04-16T05:07:05.692Z,2868.00
2019-04-16T05:08:05.656Z,3020.00
2019-04-16T05:09:05.649Z,3176.00
2019-04-16T05:10:07.576Z,3360.00
2019-04-16T05:11:05.627Z,3548.00
2019-04-16T05:12:08.124Z,3692.00
2019-04-16T05:13:05.705Z,3816.00
2019-04-16T05:14:05.588Z,3976.00
2019-04-16T05:15:05.582Z,4160.00
2019-04-16T05:16:07.003Z,4364.00
2019-04-16T05:17:06.409Z,4564.00
2019-04-16T05:18:06.027Z,4764.00
2019-04-16T05:19:05.585Z,4972.00
2019-04-16T05:20:05.526Z,5380.00
2019-04-16T05:21:05.518Z,5692.00
2019-04-16T05:22:05.500Z,5940.00
2019-04-16T05:23:05.491Z,6216.00
2019-04-16T05:24:05.480Z,6436.00
2019-04-16T05:25:05.494Z,6704.00
2019-04-16T05:26:05.489Z,7000.00
2019-04-16T05:27:08.463Z,6880.00
2019-04-16T05:28:05.439Z,7016.00
2019-04-16T05:29:05.433Z,7468.00
2019-04-16T05:30:05.414Z,7696.00
2019-04-16T05:31:05.452Z,7776.00
2019-04-16T05:32:05.401Z,7780.00
2019-04-16T05:33:06.225Z,7480.00
2019-04-16T05:34:05.996Z,7548.00
2019-04-16T05:35:09.235Z,8008.00
2019-04-16T05:36:05.354Z,8172.00
2019-04-16T05:37:05.365Z,8016.00
2019-04-16T05:38:05.332Z,8064.00
2019-04-16T05:39:05.325Z,8124.00
2019-04-16T05:40:05.309Z,8100.00
2019-04-16T05:41:13.175Z,7964.00
2019-04-16T05:42:06.411Z,7084.00
2019-04-16T05:43:05.280Z,6880.00
2019-04-16T05:44:05.270Z,7024.00
2019-04-16T05:45:05.472Z,7268.00
2019-04-16T05:46:08.330Z,7628.00
2019-04-16T05:47:05.234Z,8336.00
2019-04-16T05:48:05.328Z,8624.00
2019-04-16T05:49:05.213Z,9132.00
2019-04-16T05:50:05.200Z,8980.00
2019-04-16T05:51:05.189Z,8860.00
2019-04-16T05:52:05.177Z,9136.00
2019-04-16T05:53:05.498Z,10044.00
2019-04-16T05:54:05.213Z,10544.00
2019-04-16T05:55:05.155Z,10324.00
2019-04-16T05:56:05.132Z,10148.00
2019-04-16T05:57:05.133Z,10524.00
2019-04-16T05:58:05.115Z,12476.00
2019-04-16T05:59:05.099Z,12320.00
2019-04-16T06:00:09.353Z,10924.00
2019-04-16T06:01:06.078Z,11020.00
2019-04-16T06:02:05.131Z,12068.00
2019-04-16T06:03:05.054Z,12768.00
2019-04-16T06:04:05.046Z,15424.00
2019-04-16T06:05:05.039Z,14004.00
2019-04-16T06:06:05.046Z,16256.00
2019-04-16T06:07:07.620Z,16256.00
2019-04-16T06:08:06.304Z,16608.00
2019-04-16T06:09:04.994Z,15968.00
2019-04-16T06:10:06.929Z,13444.00
2019-04-16T06:11:04.970Z,14360.00
2019-04-16T06:12:05.884Z,17312.00
2019-04-16T06:13:04.944Z,17920.00
2019-04-16T06:14:04.954Z,17600.00
2019-04-16T06:15:04.933Z,12772.00
2019-04-16T06:16:04.923Z,12788.00
2019-04-16T06:17:04.918Z,14360.00
2019-04-16T06:18:05.385Z,13224.00
2019-04-16T06:19:04.883Z,14880.00
2019-04-16T06:20:04.879Z,15328.00
2019-04-16T06:21:04.866Z,13428.00
2019-04-16T06:22:04.861Z,13368.00
2019-04-16T06:23:04.845Z,14200.00
2019-04-16T06:24:04.877Z,13568.00
2019-04-16T06:25:09.225Z,15776.00
2019-04-16T06:26:05.806Z,14284.00
2019-04-16T06:27:04.797Z,17696.00
2019-04-16T06:28:04.790Z,20448.00
2019-04-16T06:29:04.788Z,18848.00
2019-04-16T06:30:04.788Z,20640.00
2019-04-16T06:31:05.661Z,19520.00
2019-04-16T06:32:04.736Z,16960.00
2019-04-16T06:33:04.732Z,15320.00
2019-04-16T06:34:04.722Z,15616.00
2019-04-16T06:35:04.711Z,15776.00
2019-04-16T06:36:04.716Z,15584.00
2019-04-16T06:37:04.686Z,16320.00
2019-04-16T06:38:04.674Z,16128.00
2019-04-16T06:39:04.668Z,15584.00
2019-04-16T06:40:04.653Z,14928.00
2019-04-16T06:41:04.645Z,14856.00
2019-04-16T06:42:04.674Z,14712.00
2019-04-16T06:43:04.620Z,14972.00
2019-04-16T06:44:04.607Z,14028.00
2019-04-16T06:45:05.003Z,14364.00
2019-04-16T06:46:05.484Z,17920.00
2019-04-16T06:47:04.575Z,14332.00
2019-04-16T06:48:04.584Z,13716.00
2019-04-16T06:49:04.554Z,14116.00
2019-04-16T06:50:04.546Z,13804.00
2019-04-16T06:51:04.529Z,14872.00
2019-04-16T06:52:04.523Z,15808.00
2019-04-16T06:53:04.513Z,14124.00
2019-04-16T06:54:04.520Z,14360.00
2019-04-16T06:55:04.485Z,13800.00
2019-04-16T06:56:05.536Z,14300.00
2019-04-16T06:57:04.469Z,16480.00
2019-04-16T06:58:04.466Z,16032.00
2019-04-16T06:59:04.444Z,13324.00
2019-04-16T07:00:07.164Z,12880.00
2019-04-16T07:01:06.744Z,13548.00
2019-04-16T07:02:04.425Z,13308.00
2019-04-16T07:03:04.410Z,13480.00
2019-04-16T07:04:06.706Z,13500.00
2019-04-16T07:05:04.382Z,13536.00
2019-04-16T07:06:04.815Z,13456.00
2019-04-16T07:07:08.025Z,13604.00
2019-04-16T07:08:04.343Z,14576.00
2019-04-16T07:09:07.947Z,19584.00
2019-04-16T07:10:04.321Z,14616.00
2019-04-16T07:11:04.314Z,14276.00
2019-04-16T07:12:04.320Z,14196.00
2019-04-16T07:13:04.298Z,14412.00
2019-04-16T07:14:04.282Z,14840.00
2019-04-16T07:15:04.269Z,15376.00
2019-04-16T07:16:04.260Z,15960.00
2019-04-16T07:17:04.243Z,16640.00
2019-04-16T07:18:05.551Z,17408.00
2019-04-16T07:19:04.222Z,18368.00
2019-04-16T07:20:04.800Z,19680.00
2019-04-16T07:21:04.207Z,20704.00
2019-04-16T07:22:04.193Z,24448.00
2019-04-16T07:23:04.183Z,19808.00
2019-04-16T07:24:04.208Z,18752.00
2019-04-16T07:25:05.564Z,19008.00
2019-04-16T07:26:04.537Z,19360.00
2019-04-16T07:27:04.249Z,21376.00
2019-04-16T07:28:04.137Z,29408.00
2019-04-16T07:29:04.219Z,25056.00
2019-04-16T07:30:06.589Z,21792.00
2019-04-16T07:31:04.181Z,23200.00
2019-04-16T07:32:04.187Z,23136.00
2019-04-16T07:33:04.074Z,22592.00
2019-04-16T07:34:04.079Z,23584.00
2019-04-16T07:35:04.048Z,38784.00
2019-04-16T07:36:04.062Z,39808.00
2019-04-16T07:37:04.029Z,46848.00
2019-04-16T07:38:05.677Z,29792.00
2019-04-16T07:39:05.277Z,44224.00
2019-04-16T07:40:08.332Z,39936.00
2019-04-16T07:41:05.006Z,27616.00
2019-04-16T07:42:10.529Z,25696.00
2019-04-16T07:43:04.954Z,46208.00
2019-04-16T07:44:09.595Z,45344.00
2019-04-16T07:45:04.972Z,28832.00
2019-04-16T07:46:03.928Z,36096.00
2019-04-16T07:47:03.936Z,42784.00
2019-04-16T07:48:06.066Z,44064.00
2019-04-16T07:49:03.893Z,32480.00
2019-04-16T07:50:03.887Z,37152.00
2019-04-16T07:51:04.860Z,34176.00
2019-04-16T07:52:06.966Z,29600.00
2019-04-16T07:53:03.874Z,38624.00
2019-04-16T07:54:03.853Z,48896.00
2019-04-16T07:55:03.834Z,44256.00
2019-04-16T07:56:03.815Z,36224.00
2019-04-16T07:57:03.803Z,52480.00
2019-04-16T07:58:03.794Z,50304.00
2019-04-16T07:59:03.805Z,41152.00
2019-04-16T08:00:08.255Z,50208.00
2019-04-16T08:01:04.767Z,49696.00
2019-04-16T08:02:03.757Z,49024.00
2019-04-16T08:03:03.740Z,48256.00
2019-04-16T08:04:03.738Z,50464.00
2019-04-16T08:05:07.455Z,32032.00
2019-04-16T08:06:04.702Z,32800.00
2019-04-16T08:07:03.702Z,41472.00
2019-04-16T08:08:03.686Z,42496.00
2019-04-16T08:09:03.685Z,30688.00
2019-04-16T08:10:03.746Z,27008.00
2019-04-16T08:11:03.679Z,30848.00
2019-04-16T08:12:03.638Z,50848.00
2019-04-16T08:13:03.701Z,56576.00
2019-04-16T08:14:08.893Z,55168.00
2019-04-16T08:15:13.863Z,56224.00
2019-04-16T08:16:04.619Z,57664.00
2019-04-16T08:17:03.586Z,57504.00
2019-04-16T08:18:03.579Z,52384.00
2019-04-16T08:19:03.805Z,53568.00
2019-04-16T08:20:03.554Z,56576.00
2019-04-16T08:21:10.156Z,54368.00
2019-04-16T08:22:04.675Z,49088.00
2019-04-16T08:23:03.532Z,42912.00
2019-04-16T08:24:03.507Z,51392.00
2019-04-16T08:25:04.178Z,56992.00
2019-04-16T08:26:04.787Z,61632.00
2019-04-16T08:27:04.719Z,64960.00
2019-04-16T08:28:06.579Z,64576.00
2019-04-16T08:29:03.454Z,68416.00
2019-04-16T08:30:04.259Z,71072.00
2019-04-16T08:31:03.433Z,72128.00
2019-04-16T08:32:03.478Z,73376.00
2019-04-16T08:33:03.421Z,73024.00
2019-04-16T08:34:03.460Z,71712.00
2019-04-16T08:35:03.396Z,54368.00
2019-04-16T08:36:03.375Z,34400.00
2019-04-16T08:37:03.369Z,74400.00
2019-04-16T08:38:03.425Z,71808.00
2019-04-16T08:39:06.463Z,73344.00
2019-04-16T08:40:03.362Z,74496.00
2019-04-16T08:41:03.324Z,64960.00
2019-04-16T08:42:03.311Z,67936.00
2019-04-16T08:43:03.300Z,62560.00
2019-04-16T08:44:04.394Z,72352.00
2019-04-16T08:45:07.309Z,82368.00
2019-04-16T08:46:04.291Z,80672.00
2019-04-16T08:47:03.267Z,60768.00
2019-04-16T08:48:03.247Z,28448.00
2019-04-16T08:49:03.241Z,26912.00
2019-04-16T08:50:03.225Z,33408.00
2019-04-16T08:51:05.219Z,30432.00
2019-04-16T08:52:03.228Z,38624.00
2019-04-16T08:53:03.195Z,70848.00
2019-04-16T08:54:03.189Z,76512.00
2019-04-16T08:55:03.177Z,58144.00
2019-04-16T08:56:03.158Z,68960.00
2019-04-16T08:57:03.158Z,55936.00
2019-04-16T08:58:05.876Z,39744.00
2019-04-16T08:59:03.137Z,38496.00
2019-04-16T09:00:03.119Z,38784.00
2019-04-16T09:01:03.108Z,72576.00
2019-04-16T09:02:03.312Z,81472.00
2019-04-16T09:03:03.089Z,66848.00
2019-04-16T09:04:03.307Z,68544.00
2019-04-16T09:05:05.862Z,70048.00
2019-04-16T09:06:04.385Z,86112.00
2019-04-16T09:07:11.423Z,85280.00
2019-04-16T09:08:12.264Z,55360.00
2019-04-16T09:09:12.475Z,54912.00
2019-04-16T09:10:16.208Z,70432.00
2019-04-16T09:11:04.532Z,31616.00
2019-04-16T09:12:07.971Z,67104.00
2019-04-16T09:13:05.160Z,71232.00
2019-04-16T09:14:02.967Z,89184.00
2019-04-16T09:15:02.976Z,86176.00
2019-04-16T09:16:02.939Z,79168.00
2019-04-16T09:17:02.937Z,82592.00
2019-04-16T09:18:02.919Z,81440.00
2019-04-16T09:19:02.920Z,53280.00
2019-04-16T09:20:05.640Z,52160.00
2019-04-16T09:21:02.917Z,87200.00
2019-04-16T09:22:02.884Z,82848.00
2019-04-16T09:23:02.876Z,79264.00
2019-04-16T09:24:08.498Z,86496.00
2019-04-16T09:25:03.844Z,51008.00
2019-04-16T09:26:13.015Z,49920.00
2019-04-16T09:27:03.847Z,85536.00
2019-04-16T09:28:02.814Z,82944.00
2019-04-16T09:29:08.534Z,74784.00
2019-04-16T09:30:03.800Z,67360.00
2019-04-16T09:31:02.788Z,80448.00
2019-04-16T09:32:02.767Z,77056.00
2019-04-16T09:33:02.779Z,81088.00
2019-04-16T09:34:06.460Z,60608.00
2019-04-16T09:35:09.738Z,78144.00
2019-04-16T09:36:03.729Z,79872.00
2019-04-16T09:37:02.718Z,38400.00
2019-04-16T09:38:02.707Z,61280.00
2019-04-16T09:39:02.723Z,42208.00
2019-04-16T09:40:15.562Z,67936.00
2019-04-16T09:41:03.674Z,74496.00
2019-04-16T09:42:02.661Z,73440.00
2019-04-16T09:43:15.831Z,73600.00
2019-04-16T09:44:03.667Z,77312.00
2019-04-16T09:45:05.053Z,77760.00
2019-04-16T09:46:10.117Z,72576.00
2019-04-16T09:47:05.317Z,77984.00
2019-04-16T09:48:03.825Z,82336.00
2019-04-16T09:49:04.876Z,84352.00
2019-04-16T09:50:02.609Z,87808.00
2019-04-16T09:51:02.560Z,86720.00
2019-04-16T09:52:04.028Z,82624.00
2019-04-16T09:53:02.546Z,79392.00
2019-04-16T09:54:02.526Z,75168.00
2019-04-16T09:55:02.522Z,76000.00
2019-04-16T09:56:02.532Z,77312.00
2019-04-16T09:57:02.518Z,74784.00
2019-04-16T09:58:05.979Z,67136.00
2019-04-16T09:59:02.475Z,82912.00
2019-04-16T10:00:02.469Z,79552.00
2019-04-16T10:01:02.468Z,78816.00
2019-04-16T10:02:02.462Z,83680.00
2019-04-16T10:03:02.437Z,69056.00
2019-04-16T10:04:02.423Z,69024.00
2019-04-16T10:05:02.414Z,82720.00
2019-04-16T10:06:05.360Z,68768.00
2019-04-16T10:07:02.388Z,59264.00
2019-04-16T10:08:02.408Z,83488.00
2019-04-16T10:09:02.370Z,77408.00
2019-04-16T10:10:02.359Z,80704.00
2019-04-16T10:11:05.734Z,91328.00
2019-04-16T10:12:05.057Z,95840.00
2019-04-16T10:13:03.370Z,93792.00
2019-04-16T10:14:02.329Z,98176.00
2019-04-16T10:15:02.304Z,100000.00
2019-04-16T10:16:02.298Z,76960.00
2019-04-16T10:17:02.289Z,105888.00
2019-04-16T10:18:02.431Z,105856.00
2019-04-16T10:19:07.807Z,108192.00
2019-04-16T10:20:03.268Z,93472.00
2019-04-16T10:21:02.245Z,77376.00
2019-04-16T10:22:02.232Z,92704.00
2019-04-16T10:23:02.221Z,72128.00
2019-04-16T10:24:02.205Z,82272.00
2019-04-16T10:25:02.230Z,66592.00
2019-04-16T10:26:02.200Z,84896.00
2019-04-16T10:27:04.399Z,75840.00
2019-04-16T10:28:04.920Z,72480.00
2019-04-16T10:29:02.178Z,74272.00
2019-04-16T10:30:02.155Z,63712.00
2019-04-16T10:31:02.167Z,61600.00
2019-04-16T10:32:02.127Z,70912.00
2019-04-16T10:33:02.115Z,83392.00
2019-04-16T10:34:02.119Z,73184.00
2019-04-16T10:35:02.122Z,74880.00
2019-04-16T10:36:04.882Z,93120.00
2019-04-16T10:37:02.118Z,86336.00
2019-04-16T10:38:02.068Z,86080.00
2019-04-16T10:39:02.073Z,86208.00
2019-04-16T10:40:04.789Z,82688.00
2019-04-16T10:41:02.057Z,95264.00
2019-04-16T10:42:02.033Z,98144.00
2019-04-16T10:43:02.059Z,48352.00
2019-04-16T10:44:02.034Z,98816.00
2019-04-16T10:45:01.981Z,56160.00
2019-04-16T10:46:01.986Z,92928.00
2019-04-16T10:47:01.991Z,99488.00
2019-04-16T10:48:01.948Z,77088.00
2019-04-16T10:49:01.977Z,54592.00
2019-04-16T10:50:01.948Z,95136.00
2019-04-16T10:51:01.941Z,90176.00
2019-04-16T10:52:01.927Z,80448.00
2019-04-16T10:53:01.899Z,78688.00
2019-04-16T10:54:01.884Z,50656.00
2019-04-16T10:55:01.931Z,59872.00
2019-04-16T10:56:01.899Z,80064.00
2019-04-16T10:57:01.877Z,66688.00
2019-04-16T10:58:01.853Z,58944.00
2019-04-16T10:59:01.885Z,52992.00
2019-04-16T11:00:01.867Z,53216.00
2019-04-16T11:01:01.925Z,90592.00
2019-04-16T11:02:01.795Z,95488.00
2019-04-16T11:03:01.790Z,88096.00
2019-04-16T11:04:01.777Z,88096.00
2019-04-16T11:05:03.027Z,92960.00
2019-04-16T11:06:01.762Z,87488.00
2019-04-16T11:07:01.787Z,90112.00
2019-04-16T11:08:04.280Z,90752.00
2019-04-16T11:09:02.722Z,97472.00
2019-04-16T11:10:01.722Z,71904.00
2019-04-16T11:11:01.760Z,53760.00
2019-04-16T11:12:04.825Z,32576.00
2019-04-16T11:13:01.701Z,32704.00
2019-04-16T11:14:01.678Z,28608.00
2019-04-16T11:15:01.681Z,27520.00
2019-04-16T11:16:01.680Z,31072.00
2019-04-16T11:17:01.655Z,32704.00
2019-04-16T11:18:01.637Z,28192.00
2019-04-16T11:19:01.665Z,26176.00
2019-04-16T11:20:01.705Z,25408.00
2019-04-16T11:21:01.588Z,23552.00
2019-04-16T11:22:03.874Z,23488.00
2019-04-16T11:23:01.576Z,23040.00
2019-04-16T11:24:01.594Z,22784.00
2019-04-16T11:25:01.575Z,22912.00
2019-04-16T11:26:01.542Z,23232.00
2019-04-16T11:27:01.520Z,23552.00
2019-04-16T11:28:01.523Z,23840.00
2019-04-16T11:29:01.525Z,24640.00
2019-04-16T11:30:01.526Z,26112.00
2019-04-16T11:31:01.513Z,26656.00
2019-04-16T11:32:01.467Z,27264.00
2019-04-16T11:33:01.483Z,26976.00
2019-04-16T11:34:01.454Z,26624.00
2019-04-16T11:35:01.472Z,26880.00
2019-04-16T11:36:16.390Z,26528.00
2019-04-16T11:37:07.409Z,26240.00
2019-04-16T11:38:02.656Z,26400.00
2019-04-16T11:39:01.432Z,26784.00
2019-04-16T11:40:01.468Z,27552.00
2019-04-16T11:41:01.412Z,28320.00
2019-04-16T11:42:01.437Z,26400.00
2019-04-16T11:43:01.389Z,25952.00
2019-04-16T11:44:14.151Z,27072.00
2019-04-16T11:45:02.325Z,29632.00
2019-04-16T11:46:01.355Z,31104.00
2019-04-16T11:47:01.320Z,29984.00
2019-04-16T11:48:01.315Z,27840.00
2019-04-16T11:49:01.321Z,27168.00
2019-04-16T11:50:01.315Z,27552.00
2019-04-16T11:51:01.304Z,27456.00
2019-04-16T11:52:01.285Z,26176.00
2019-04-16T11:53:01.256Z,24544.00
2019-04-16T11:54:01.239Z,23712.00
2019-04-16T11:55:01.250Z,23456.00
2019-04-16T11:56:01.259Z,24128.00
2019-04-16T11:57:01.234Z,23872.00
2019-04-16T11:58:01.219Z,23264.00
2019-04-16T11:59:01.200Z,23008.00
2019-04-16T12:00:07.622Z,23520.00
2019-04-16T12:01:02.256Z,24224.00
2019-04-16T12:02:01.173Z,24032.00
2019-04-16T12:03:01.170Z,24128.00
2019-04-16T12:04:01.129Z,25376.00
2019-04-16T12:05:01.145Z,26560.00
2019-04-16T12:06:01.119Z,27872.00
2019-04-16T12:07:01.112Z,29024.00
2019-04-16T12:08:01.100Z,29824.00
2019-04-16T12:09:01.070Z,29408.00
2019-04-16T12:10:01.075Z,28512.00
2019-04-16T12:11:01.049Z,28800.00
2019-04-16T12:12:01.048Z,28352.00
2019-04-16T12:13:03.458Z,27840.00
2019-04-16T12:14:04.231Z,28384.00
2019-04-16T12:15:02.008Z,28512.00
2019-04-16T12:16:01.044Z,30080.00
2019-04-16T12:17:01.007Z,31456.00
2019-04-16T12:18:00.967Z,32128.00